Time;durP1;ratioP1;P1;durP2;ratioP2;P2;SDS_P1;SDS_P2;PMS_P1;PMS_P2;Temp;Humidity;BMP_temperature;BMP_pressure;BME280_temperature;BME280_humidity;BME280_pressure;Samples;Min_cycle;Max_cycle;Signal;HPM_P1;HPM_P2
2023/06/08 00:02:08;;;;;;;26.10;24.77;;;24.20;77.70;;;;;;5035650;28;20876;-62
2023/06/08 00:04:40;;;;;;;26.73;25.43;;;24.20;77.60;;;;;;5035479;28;20877;-60
2023/06/08 00:07:08;;;;;;;25.10;23.77;;;24.20;77.60;;;;;;5035424;28;20444;-62
2023/06/08 00:09:36;;;;;;;28.77;27.17;;;24.20;77.90;;;;;;5035399;28;20456;-63
2023/06/08 00:12:04;;;;;;;26.20;24.80;;;24.20;77.80;;;;;;5035428;28;20803;-63
2023/06/08 00:14:31;;;;;;;25.80;24.47;;;24.20;77.80;;;;;;5035262;28;20496;-64
2023/06/08 00:17:02;;;;;;;25.73;24.33;;;24.20;77.90;;;;;;5035050;28;20473;-63
2023/06/08 00:19:31;;;;;;;25.60;24.20;;;24.20;78.00;;;;;;5034598;28;20449;-64
2023/06/08 00:21:58;;;;;;;27.43;26.10;;;24.20;78.00;;;;;;5035153;28;20448;-63
2023/06/08 00:24:26;;;;;;;26.17;24.53;;;24.20;77.80;;;;;;5034789;28;20983;-63
2023/06/08 00:26:53;;;;;;;25.07;23.67;;;24.20;77.80;;;;;;5035263;28;20883;-64
2023/06/08 00:29:20;;;;;;;25.73;24.43;;;24.20;77.80;;;;;;5035381;28;20481;-63
2023/06/08 00:31:47;;;;;;;28.00;26.30;;;24.20;77.80;;;;;;5036133;28;20448;-63
2023/06/08 00:34:13;;;;;;;26.40;25.10;;;24.20;77.90;;;;;;5035286;28;20885;-63
2023/06/08 00:36:42;;;;;;;26.53;25.03;;;24.20;78.40;;;;;;5034387;28;20441;-62
2023/06/08 00:39:09;;;;;;;25.90;24.60;;;24.20;78.50;;;;;;5034773;28;20476;-62
2023/06/08 00:41:36;;;;;;;25.00;23.70;;;24.20;78.40;;;;;;5034778;28;20480;-63
2023/06/08 00:44:05;;;;;;;25.63;24.43;;;24.10;78.40;;;;;;5034468;28;20487;-64
2023/06/08 00:46:32;;;;;;;25.17;23.87;;;24.20;78.40;;;;;;5035016;28;20512;-63
2023/06/08 00:49:00;;;;;;;25.43;24.00;;;24.10;78.20;;;;;;5034507;28;20481;-63
2023/06/08 00:51:30;;;;;;;26.30;24.60;;;24.10;78.20;;;;;;5034998;28;20484;-63
2023/06/08 00:53:58;;;;;;;26.03;24.53;;;24.10;78.40;;;;;;5034879;28;20503;-62
2023/06/08 00:56:27;;;;;;;25.03;23.73;;;24.10;78.40;;;;;;5034391;28;20527;-63
2023/06/08 00:58:56;;;;;;;26.33;24.67;;;24.10;78.50;;;;;;5032830;28;20447;-63
2023/06/08 01:01:25;;;;;;;26.03;24.60;;;24.10;78.60;;;;;;5033884;28;20467;-63
2023/06/08 01:03:55;;;;;;;26.17;24.77;;;24.10;78.40;;;;;;5034167;28;20480;-63
2023/06/08 01:06:22;;;;;;;25.37;23.97;;;24.10;78.50;;;;;;5033959;28;21069;-62
2023/06/08 01:08:57;;;;;;;26.00;24.50;;;24.10;78.60;;;;;;5033602;28;20847;-63
2023/06/08 01:11:38;;;;;;;26.23;24.83;;;24.10;78.60;;;;;;5032837;28;20487;-63
2023/06/08 01:14:16;;;;;;;25.07;23.80;;;24.10;78.80;;;;;;5033764;28;20496;-63
2023/06/08 01:16:49;;;;;;;25.50;23.90;;;24.10;78.70;;;;;;5033824;28;20465;-62
2023/06/08 01:19:23;;;;;;;25.60;24.30;;;24.10;78.50;;;;;;5023592;28;20532;-62
2023/06/08 01:22:11;;;;;;;25.90;24.40;;;24.10;78.80;;;;;;5034599;28;20849;-64
2023/06/08 01:24:49;;;;;;;26.33;24.87;;;24.10;78.80;;;;;;5033936;28;20492;-63
2023/06/08 01:27:17;;;;;;;25.60;24.30;;;24.10;78.60;;;;;;5034901;28;20451;-64
2023/06/08 01:29:45;;;;;;;25.97;24.70;;;24.10;78.80;;;;;;5034180;28;20441;-63
2023/06/08 01:32:12;;;;;;;25.90;24.50;;;24.00;78.90;;;;;;5033729;28;20511;-63
2023/06/08 01:34:40;;;;;;;26.20;24.87;;;24.10;78.80;;;;;;5033647;28;20452;-64
2023/06/08 01:37:13;;;;;;;26.27;24.87;;;24.10;79.00;;;;;;5033579;28;20476;-63
2023/06/08 01:39:56;;;;;;;25.20;23.80;;;24.10;79.00;;;;;;5033584;28;20811;-63
2023/06/08 01:42:25;;;;;;;25.73;24.43;;;24.10;79.20;;;;;;5033183;28;20932;-62
2023/06/08 01:44:58;;;;;;;25.97;24.30;;;24.10;79.30;;;;;;5033497;28;20449;-64
2023/06/08 01:47:33;;;;;;;25.80;24.43;;;24.00;79.20;;;;;;5033783;28;20476;-64
2023/06/08 01:50:01;;;;;;;25.17;23.77;;;24.10;79.20;;;;;;5034363;28;20971;-64
2023/06/08 01:52:28;;;;;;;25.80;24.20;;;24.00;79.00;;;;;;5033277;28;20875;-62
2023/06/08 01:54:56;;;;;;;26.30;24.97;;;24.00;79.30;;;;;;5033260;28;20477;-61
2023/06/08 01:57:23;;;;;;;25.70;24.30;;;24.00;79.30;;;;;;5032947;28;20480;-63
2023/06/08 01:59:50;;;;;;;25.77;24.37;;;24.00;79.40;;;;;;5033254;28;20542;-64
2023/06/08 02:02:17;;;;;;;25.10;23.80;;;24.00;79.30;;;;;;5034078;28;20868;-63
2023/06/08 02:04:44;;;;;;;25.30;24.00;;;24.00;79.40;;;;;;5032929;28;20510;-62
2023/06/08 02:07:11;;;;;;;27.70;25.67;;;24.00;79.40;;;;;;5033358;28;20485;-64
2023/06/08 02:09:38;;;;;;;26.00;24.60;;;24.00;79.80;;;;;;5033008;28;20483;-63
2023/06/08 02:12:08;;;;;;;25.90;24.30;;;24.00;79.70;;;;;;5033226;28;20477;-63
2023/06/08 02:14:36;;;;;;;25.97;24.37;;;24.00;79.50;;;;;;5032350;28;20464;-63
2023/06/08 02:17:03;;;;;;;25.93;24.53;;;24.00;79.50;;;;;;5033284;28;20506;-63
2023/06/08 02:19:31;;;;;;;25.53;24.07;;;24.00;79.30;;;;;;5033421;28;20527;-63
2023/06/08 02:21:59;;;;;;;26.17;24.57;;;24.00;79.40;;;;;;5033194;28;20499;-63
2023/06/08 02:24:26;;;;;;;25.30;23.90;;;24.00;79.50;;;;;;5032956;28;20496;-60
2023/06/08 02:26:54;;;;;;;25.33;23.80;;;24.00;79.60;;;;;;5032420;28;20922;-63
2023/06/08 02:29:22;;;;;;;25.57;24.20;;;24.00;79.50;;;;;;5032946;28;20811;-63
2023/06/08 02:31:49;;;;;;;25.93;24.53;;;24.00;79.90;;;;;;5033022;28;20886;-61
2023/06/08 02:34:17;;;;;;;25.63;24.23;;;24.00;79.80;;;;;;5032291;28;21051;-63
2023/06/08 02:36:47;;;;;;;24.80;23.50;;;23.90;79.80;;;;;;5032793;28;20445;-63
2023/06/08 02:39:14;;;;;;;26.70;25.20;;;23.90;79.70;;;;;;5032482;28;20499;-64
2023/06/08 02:41:41;;;;;;;25.87;24.47;;;23.90;79.50;;;;;;5032833;28;20511;-63
2023/06/08 02:44:08;;;;;;;24.43;23.23;;;24.00;79.80;;;;;;5033369;28;20517;-62
2023/06/08 02:46:38;;;;;;;26.03;24.33;;;23.90;79.60;;;;;;5032017;28;20508;-63
2023/06/08 02:49:05;;;;;;;25.23;23.93;;;23.90;79.50;;;;;;5033527;28;20449;-64
2023/06/08 02:51:32;;;;;;;25.00;23.73;;;23.90;79.80;;;;;;5032948;28;20457;-64
2023/06/08 02:53:59;;;;;;;26.07;24.57;;;23.90;79.60;;;;;;5033457;28;20496;-64
2023/06/08 02:56:27;;;;;;;25.87;24.33;;;23.90;79.80;;;;;;5032014;28;20870;-63
2023/06/08 02:58:54;;;;;;;25.43;24.07;;;23.90;80.10;;;;;;5032816;28;20477;-63
2023/06/08 03:01:21;;;;;;;26.13;24.83;;;23.90;79.90;;;;;;5032420;28;20539;-63
2023/06/08 03:03:51;;;;;;;26.30;24.80;;;23.90;79.70;;;;;;5032156;28;20503;-63
2023/06/08 03:06:19;;;;;;;26.20;24.53;;;23.90;79.40;;;;;;5031723;28;20484;-62
2023/06/08 03:08:46;;;;;;;25.43;24.10;;;23.90;79.60;;;;;;5032157;28;20468;-62
2023/06/08 03:11:13;;;;;;;26.97;25.17;;;23.90;79.50;;;;;;5032080;28;20540;-63
2023/06/08 03:13:40;;;;;;;25.73;24.23;;;23.90;79.80;;;;;;5031792;28;20508;-64
2023/06/08 03:16:07;;;;;;;25.57;24.17;;;23.90;79.60;;;;;;5031974;28;20524;-63
2023/06/08 03:18:35;;;;;;;25.53;24.03;;;23.90;79.60;;;;;;5032186;28;20889;-62
2023/06/08 03:21:04;;;;;;;25.77;24.10;;;23.90;79.60;;;;;;5031906;28;20453;-64
2023/06/08 03:23:32;;;;;;;25.30;24.00;;;23.90;79.80;;;;;;5031368;28;20546;-63
2023/06/08 03:25:59;;;;;;;28.00;25.90;;;23.80;79.80;;;;;;5031571;28;20481;-63
2023/06/08 03:28:26;;;;;;;25.10;23.80;;;23.90;79.60;;;;;;5031586;28;20483;-64
2023/06/08 03:30:53;;;;;;;25.70;24.30;;;23.90;79.60;;;;;;5031714;28;20530;-64
2023/06/08 03:33:20;;;;;;;26.07;24.67;;;23.90;79.20;;;;;;5030552;28;20888;-63
2023/06/08 03:35:47;;;;;;;24.57;23.27;;;23.90;79.30;;;;;;5031663;28;20448;-63
2023/06/08 03:38:16;;;;;;;26.67;25.17;;;23.80;79.30;;;;;;5031680;28;20456;-62
2023/06/08 03:40:42;;;;;;;27.37;24.80;;;23.80;79.50;;;;;;5031461;28;20541;-60
2023/06/08 03:43:09;;;;;;;26.10;24.70;;;23.80;79.40;;;;;;5030461;28;21015;-60
2023/06/08 03:45:36;;;;;;;27.03;25.20;;;23.80;79.90;;;;;;5031162;28;20445;-60
2023/06/08 03:48:03;;;;;;;25.80;24.37;;;23.90;79.80;;;;;;5031456;28;20963;-60
2023/06/08 03:50:31;;;;;;;26.93;25.10;;;23.80;79.90;;;;;;5031421;28;20548;-61
2023/06/08 03:52:58;;;;;;;25.83;24.37;;;23.80;79.60;;;;;;5030843;28;20464;-61
2023/06/08 03:55:27;;;;;;;25.30;24.00;;;23.90;79.80;;;;;;5031350;28;20469;-62
2023/06/08 03:57:54;;;;;;;26.13;24.53;;;23.80;79.80;;;;;;5031259;28;20445;-57
2023/06/08 04:00:21;;;;;;;26.67;25.27;;;23.90;80.00;;;;;;5031273;28;20445;-59
2023/06/08 04:02:48;;;;;;;27.13;25.63;;;23.90;79.70;;;;;;5030613;28;20472;-62
2023/06/08 04:05:15;;;;;;;26.50;25.03;;;23.90;79.70;;;;;;5031212;28;20952;-61
2023/06/08 04:07:43;;;;;;;27.07;25.67;;;23.90;79.30;;;;;;5031310;28;20555;-63
2023/06/08 04:10:12;;;;;;;27.87;26.37;;;23.90;79.10;;;;;;5031336;28;20477;-63
2023/06/08 04:12:41;;;;;;;27.33;25.77;;;23.90;79.00;;;;;;5031333;28;20764;-63
2023/06/08 04:15:09;;;;;;;27.07;25.47;;;23.90;79.00;;;;;;5031146;28;20455;-61
2023/06/08 04:17:36;;;;;;;28.80;27.00;;;23.90;78.80;;;;;;5031122;28;20847;-62
2023/06/08 04:20:05;;;;;;;27.27;25.67;;;23.90;78.60;;;;;;5030962;28;20449;-62
2023/06/08 04:22:31;;;;;;;28.00;26.13;;;23.90;78.70;;;;;;5031317;28;20543;-62
2023/06/08 04:24:58;;;;;;;27.87;26.07;;;23.90;78.60;;;;;;5031100;28;20825;-59
2023/06/08 04:27:25;;;;;;;27.00;25.50;;;23.90;78.60;;;;;;5031036;28;20567;-63
2023/06/08 04:29:53;;;;;;;26.90;25.50;;;23.90;78.50;;;;;;5031104;28;20487;-63
2023/06/08 04:32:21;;;;;;;26.37;24.90;;;23.90;78.60;;;;;;5030809;28;20477;-62
2023/06/08 04:34:48;;;;;;;27.00;25.60;;;23.90;78.50;;;;;;5030983;28;20471;-61
2023/06/08 04:37:15;;;;;;;28.10;26.27;;;23.90;78.40;;;;;;5030946;28;20473;-61
2023/06/08 04:39:42;;;;;;;25.93;24.33;;;23.90;78.00;;;;;;5030912;28;20522;-61
2023/06/08 04:42:09;;;;;;;27.13;25.60;;;23.90;78.10;;;;;;5030863;28;20847;-60
2023/06/08 04:44:38;;;;;;;27.13;25.70;;;23.90;77.80;;;;;;5031538;28;20473;-60
2023/06/08 04:47:07;;;;;;;28.10;26.47;;;23.90;77.90;;;;;;5035133;28;20530;-63
2023/06/08 04:49:35;;;;;;;27.30;25.80;;;23.90;77.70;;;;;;5034286;28;20944;-62
2023/06/08 04:52:02;;;;;;;26.67;25.27;;;24.00;78.50;;;;;;5034568;28;20485;-58
2023/06/08 04:54:29;;;;;;;26.83;25.30;;;23.90;77.50;;;;;;5034230;28;20971;-63
2023/06/08 04:56:58;;;;;;;28.00;26.30;;;24.00;77.50;;;;;;5034358;28;20536;-62
2023/06/08 04:59:26;;;;;;;27.50;26.10;;;24.00;77.50;;;;;;5033974;28;20448;-60
2023/06/08 05:01:52;;;;;;;26.87;25.37;;;24.00;77.70;;;;;;5034354;28;20972;-60
2023/06/08 05:04:21;;;;;;;26.97;25.57;;;24.00;77.70;;;;;;5033961;28;20910;-61
2023/06/08 05:06:49;;;;;;;26.13;24.73;;;24.00;77.40;;;;;;5034218;28;20543;-61
2023/06/08 05:09:18;;;;;;;26.93;25.37;;;24.00;77.50;;;;;;5033074;28;20488;-58
2023/06/08 05:11:45;;;;;;;26.93;25.43;;;24.00;77.50;;;;;;5034539;28;20865;-62
2023/06/08 05:14:12;;;;;;;27.20;25.70;;;24.00;77.50;;;;;;5033874;28;20511;-63
2023/06/08 05:16:39;;;;;;;28.00;26.50;;;24.00;77.40;;;;;;5034276;28;20480;-60
2023/06/08 05:19:07;;;;;;;27.47;26.00;;;24.10;77.30;;;;;;5034047;28;20444;-61
2023/06/08 05:21:39;;;;;;;27.50;25.80;;;24.10;77.10;;;;;;5033940;28;20499;-57
2023/06/08 05:24:07;;;;;;;26.93;25.23;;;24.10;77.00;;;;;;5033768;28;20464;-59
2023/06/08 05:26:34;;;;;;;27.70;26.10;;;24.10;76.90;;;;;;5033701;28;20516;-62
2023/06/08 05:29:02;;;;;;;26.70;25.30;;;24.10;76.90;;;;;;5035143;28;20444;-64
2023/06/08 05:31:29;;;;;;;27.60;26.10;;;24.10;76.70;;;;;;5033611;28;20444;-62
2023/06/08 05:33:55;;;;;;;27.83;26.23;;;24.10;76.60;;;;;;5033374;28;20504;-59
2023/06/08 05:36:22;;;;;;;27.10;25.60;;;24.10;76.50;;;;;;5033854;28;20532;-64
2023/06/08 05:38:51;;;;;;;27.73;26.20;;;24.20;76.50;;;;;;5046711;28;20449;-65
2023/06/08 05:41:18;;;;;;;26.90;25.37;;;24.10;76.40;;;;;;5034897;28;20480;-64
2023/06/08 05:43:45;;;;;;;26.70;25.30;;;24.20;76.40;;;;;;5034659;28;20512;-61
2023/06/08 05:46:14;;;;;;;27.07;25.67;;;24.20;76.40;;;;;;5033429;28;20507;-62
2023/06/08 05:48:41;;;;;;;26.23;24.83;;;24.20;76.20;;;;;;5033753;28;20539;-65
2023/06/08 05:51:08;;;;;;;26.87;25.50;;;24.20;76.00;;;;;;5033529;28;20472;-61
2023/06/08 05:53:36;;;;;;;26.53;24.93;;;24.20;76.10;;;;;;5033141;28;20460;-62
2023/06/08 05:56:05;;;;;;;26.73;25.33;;;24.20;76.40;;;;;;5033555;28;20445;-62
2023/06/08 05:58:32;;;;;;;26.10;24.73;;;24.20;76.30;;;;;;5033539;28;20471;-59
2023/06/08 06:00:59;;;;;;;26.57;25.17;;;24.20;76.50;;;;;;5033174;28;20481;-60
2023/06/08 06:03:26;;;;;;;27.27;25.57;;;24.20;76.50;;;;;;5032460;28;20465;-59
2023/06/08 06:05:53;;;;;;;26.80;25.40;;;24.20;77.10;;;;;;5033164;28;20445;-62
2023/06/08 06:08:20;;;;;;;27.47;25.83;;;24.20;76.70;;;;;;5033092;28;21116;-62
2023/06/08 06:10:47;;;;;;;26.53;25.13;;;24.20;76.70;;;;;;5033028;28;20487;-61
2023/06/08 06:13:15;;;;;;;28.87;27.07;;;24.20;76.60;;;;;;5032543;28;20500;-63
2023/06/08 06:15:42;;;;;;;27.50;26.10;;;24.20;76.60;;;;;;5032924;28;20954;-63
2023/06/08 06:18:09;;;;;;;27.90;26.40;;;24.20;76.60;;;;;;5032934;28;20473;-58
2023/06/08 06:20:36;;;;;;;28.03;26.40;;;24.20;76.40;;;;;;5032837;28;20928;-63
2023/06/08 06:23:03;;;;;;;28.17;26.70;;;24.20;76.20;;;;;;5033110;28;20500;-61
2023/06/08 06:25:30;;;;;;;27.63;26.13;;;24.30;76.40;;;;;;5032669;28;20475;-61
2023/06/08 06:27:57;;;;;;;27.50;26.00;;;24.30;76.40;;;;;;5032553;28;20585;-60
2023/06/08 06:30:26;;;;;;;27.33;25.73;;;24.30;76.20;;;;;;5032845;28;20897;-61
2023/06/08 06:32:53;;;;;;;27.60;26.10;;;24.30;76.30;;;;;;5032153;28;20476;-63
2023/06/08 06:35:20;;;;;;;27.00;25.60;;;24.30;76.20;;;;;;5032795;28;20495;-61
2023/06/08 06:37:46;;;;;;;27.60;26.20;;;24.30;76.10;;;;;;5032744;28;20481;-65
2023/06/08 06:40:13;;;;;;;27.37;25.90;;;24.30;76.10;;;;;;5032776;28;20528;-64
2023/06/08 06:42:40;;;;;;;27.70;26.13;;;24.30;76.00;;;;;;5032896;28;20913;-59
2023/06/08 06:45:11;;;;;;;28.10;26.60;;;24.30;75.90;;;;;;5038484;28;20591;-60
2023/06/08 06:47:39;;;;;;;29.07;27.30;;;24.30;75.90;;;;;;5032714;28;20480;-62
2023/06/08 06:50:07;;;;;;;27.67;26.30;;;24.30;76.50;;;;;;5032444;28;20510;-63
2023/06/08 06:52:34;;;;;;;28.33;26.80;;;24.30;75.80;;;;;;5032249;28;20905;-63
2023/06/08 06:55:02;;;;;;;28.30;26.50;;;24.30;75.50;;;;;;5031791;28;20449;-64
2023/06/08 06:57:32;;;;;;;27.80;26.40;;;24.30;75.40;;;;;;5032421;28;20454;-63
2023/06/08 06:59:59;;;;;;;27.60;26.10;;;24.30;75.50;;;;;;5032097;28;20528;-61
2023/06/08 07:02:28;;;;;;;28.23;26.63;;;24.30;75.50;;;;;;5032069;28;20444;-63
2023/06/08 07:04:58;;;;;;;27.20;25.80;;;24.40;75.50;;;;;;5031836;28;20503;-64
2023/06/08 07:07:26;;;;;;;27.63;26.17;;;24.40;75.40;;;;;;5031835;28;20839;-58
2023/06/08 07:09:53;;;;;;;27.40;25.90;;;24.40;75.30;;;;;;5031903;28;20455;-59
2023/06/08 07:12:20;;;;;;;27.43;25.90;;;24.40;75.40;;;;;;5031894;28;20940;-61
2023/06/08 07:14:47;;;;;;;28.20;26.80;;;24.40;75.70;;;;;;5033215;28;20487;-65
2023/06/08 07:17:15;;;;;;;27.80;26.00;;;24.40;75.40;;;;;;5032404;28;20465;-63
2023/06/08 07:19:45;;;;;;;27.33;25.93;;;24.40;75.60;;;;;;5031576;28;20456;-65
2023/06/08 07:22:14;;;;;;;27.10;25.80;;;24.40;75.60;;;;;;5031788;28;20493;-63
2023/06/08 07:24:41;;;;;;;27.93;26.37;;;24.40;75.70;;;;;;5032155;28;20535;-58
2023/06/08 07:27:08;;;;;;;26.30;25.00;;;24.40;75.50;;;;;;5031629;28;20485;-62
2023/06/08 07:29:35;;;;;;;27.33;25.70;;;24.50;76.20;;;;;;5031510;28;20507;-60
2023/06/08 07:32:02;;;;;;;27.30;25.90;;;24.40;75.70;;;;;;5031614;28;20842;-61
2023/06/08 07:34:31;;;;;;;28.20;26.50;;;24.50;76.40;;;;;;5031425;28;20469;-54
2023/06/08 07:36:57;;;;;;;29.60;27.50;;;24.50;77.60;;;;;;5031356;28;20449;-66
2023/06/08 07:39:26;;;;;;;28.57;26.47;;;24.50;78.50;;;;;;5031629;28;20491;-66
2023/06/08 07:41:53;;;;;;;28.03;26.43;;;24.50;77.80;;;;;;5031486;28;20452;-63
2023/06/08 07:44:19;;;;;;;28.20;26.53;;;24.50;78.20;;;;;;5031207;28;20509;-65
2023/06/08 07:46:46;;;;;;;28.70;26.90;;;24.50;77.50;;;;;;5031523;28;20480;-67
2023/06/08 07:49:13;;;;;;;28.87;26.97;;;24.50;77.30;;;;;;5031195;28;20496;-67
2023/06/08 07:51:40;;;;;;;28.50;26.90;;;24.50;77.10;;;;;;5031442;28;20452;-66
2023/06/08 07:54:07;;;;;;;28.83;27.03;;;24.50;76.90;;;;;;5031205;28;20505;-65
2023/06/08 07:56:35;;;;;;;27.50;25.90;;;24.50;76.70;;;;;;5031338;28;20524;-64
2023/06/08 07:59:02;;;;;;;29.03;27.10;;;24.50;76.70;;;;;;5031255;28;20473;-65
2023/06/08 08:01:29;;;;;;;28.37;26.73;;;24.50;76.60;;;;;;5031292;28;20504;-64
2023/06/08 08:03:56;;;;;;;27.80;26.33;;;24.60;76.60;;;;;;5031022;28;20854;-64
2023/06/08 08:06:23;;;;;;;79.73;73.67;;;24.50;76.50;;;;;;5031541;28;20540;-62
2023/06/08 08:08:50;;;;;;;25.63;24.27;;;24.60;77.70;;;;;;5031104;28;20576;-60
2023/06/08 08:11:17;;;;;;;25.87;24.33;;;24.60;79.10;;;;;;5031014;28;20476;-60
2023/06/08 08:13:45;;;;;;;27.33;25.67;;;24.60;79.20;;;;;;5031019;28;20551;-58
2023/06/08 08:16:12;;;;;;;26.77;25.33;;;24.70;79.40;;;;;;5031301;28;20449;-58
2023/06/08 08:18:39;;;;;;;26.40;25.10;;;24.70;79.00;;;;;;5031081;28;20476;-59
2023/06/08 08:21:06;;;;;;;26.57;24.93;;;24.80;79.50;;;;;;5033688;28;20449;-59
2023/06/08 08:23:33;;;;;;;26.27;24.90;;;24.90;79.20;;;;;;5034711;28;20547;-58
2023/06/08 08:26:00;;;;;;;26.57;25.23;;;24.90;79.50;;;;;;5035119;28;20846;-60
2023/06/08 08:28:27;;;;;;;27.10;25.70;;;25.00;79.60;;;;;;5034954;28;20870;-57
2023/06/08 08:30:55;;;;;;;26.53;24.40;;;25.00;79.50;;;;;;5034488;28;20863;-59
2023/06/08 08:33:22;;;;;;;27.50;25.80;;;25.00;79.40;;;;;;5034449;28;20879;-58
2023/06/08 08:35:49;;;;;;;26.63;25.23;;;25.10;79.10;;;;;;5034873;28;21003;-60
2023/06/08 08:38:16;;;;;;;25.97;24.77;;;25.20;79.00;;;;;;5034696;28;20464;-57
2023/06/08 08:40:43;;;;;;;25.73;24.53;;;25.20;78.70;;;;;;5034304;28;20528;-59
2023/06/08 08:43:19;;;;;;;26.23;24.93;;;25.20;78.70;;;;;;5034647;28;20504;-57
2023/06/08 08:45:46;;;;;;;26.40;24.60;;;25.30;78.40;;;;;;5034651;28;20535;-55
2023/06/08 08:48:19;;;;;;;27.10;25.67;;;25.30;78.10;;;;;;5034599;28;20520;-56
2023/06/08 08:50:49;;;;;;;27.47;26.07;;;25.30;78.20;;;;;;5034426;28;20455;-59
2023/06/08 08:53:17;;;;;;;28.40;26.80;;;25.30;78.00;;;;;;5034241;28;20460;-64
2023/06/08 08:55:48;;;;;;;27.73;26.40;;;25.40;78.00;;;;;;5034447;28;20445;-65
2023/06/08 08:58:18;;;;;;;27.40;26.03;;;25.40;77.50;;;;;;5034359;28;20449;-62
2023/06/08 09:00:50;;;;;;;26.63;25.33;;;25.40;77.50;;;;;;5034297;28;20984;-65
2023/06/08 09:03:18;;;;;;;27.20;25.77;;;25.40;77.20;;;;;;5034699;28;20864;-65
2023/06/08 09:05:46;;;;;;;25.83;24.63;;;25.50;77.00;;;;;;5034363;28;20449;-66
2023/06/08 09:08:13;;;;;;;28.13;26.53;;;25.50;76.90;;;;;;5034170;28;20551;-60
2023/06/08 09:10:40;;;;;;;27.07;25.77;;;25.50;76.60;;;;;;5034175;28;20459;-63
2023/06/08 09:13:07;;;;;;;27.17;25.47;;;25.60;76.50;;;;;;5033752;28;21021;-65
2023/06/08 09:15:36;;;;;;;26.97;25.63;;;25.60;76.40;;;;;;5034014;28;20473;-60
2023/06/08 09:18:16;;;;;;;26.00;24.70;;;25.70;76.40;;;;;;5034222;28;20475;-63
2023/06/08 09:20:45;;;;;;;27.50;26.10;;;25.70;76.30;;;;;;5034133;28;20445;-53
2023/06/08 09:23:16;;;;;;;26.10;24.70;;;25.70;76.10;;;;;;5033697;28;20504;-58
2023/06/08 09:25:46;;;;;;;27.63;26.00;;;25.80;76.00;;;;;;5016219;28;20449;-59
2023/06/08 09:28:17;;;;;;;26.23;25.03;;;25.80;75.70;;;;;;5033924;28;21025;-64
2023/06/08 09:30:44;;;;;;;26.53;25.23;;;25.80;75.90;;;;;;5033120;28;20449;-64
2023/06/08 09:33:21;;;;;;;26.70;25.50;;;25.80;75.90;;;;;;5033874;28;20465;-66
2023/06/08 09:36:05;;;;;;;28.60;27.10;;;25.80;75.90;;;;;;5033509;28;20449;-64
2023/06/08 09:38:33;;;;;;;27.33;25.90;;;25.80;75.70;;;;;;5033673;28;20529;-64
2023/06/08 09:41:21;;;;;;;27.63;26.27;;;25.80;75.60;;;;;;5033578;28;20492;-61
2023/06/08 09:43:49;;;;;;;27.00;25.70;;;25.80;75.80;;;;;;5033240;28;20883;-65
2023/06/08 09:46:33;;;;;;;26.73;25.23;;;25.80;75.70;;;;;;5033553;28;20468;-66
2023/06/08 09:49:00;;;;;;;27.20;25.90;;;25.80;75.80;;;;;;5033494;28;21011;-62
2023/06/08 09:51:29;;;;;;;27.03;25.80;;;25.80;75.80;;;;;;5033702;28;20452;-62
2023/06/08 09:53:57;;;;;;;26.93;25.63;;;25.90;75.80;;;;;;5032614;28;20552;-62
2023/06/08 09:56:25;;;;;;;27.70;26.20;;;25.90;75.70;;;;;;5033166;28;20449;-65
2023/06/08 09:58:56;;;;;;;27.50;26.20;;;25.90;75.60;;;;;;5033322;28;20471;-64
2023/06/08 10:01:29;;;;;;;26.37;25.10;;;25.90;75.80;;;;;;5033281;28;20534;-64
2023/06/08 10:04:00;;;;;;;27.07;25.77;;;25.80;75.80;;;;;;5032752;28;20473;-66
2023/06/08 10:06:31;;;;;;;27.80;26.40;;;25.90;75.90;;;;;;5033252;28;20492;-66
2023/06/08 10:09:00;;;;;;;27.60;26.20;;;25.80;76.00;;;;;;5037224;28;20484;-65
2023/06/08 10:11:29;;;;;;;26.90;25.60;;;25.90;76.00;;;;;;5032852;28;20441;-58
2023/06/08 10:13:58;;;;;;;27.47;26.07;;;25.90;75.90;;;;;;5032688;28;20473;-60
2023/06/08 10:16:26;;;;;;;28.40;26.70;;;25.90;76.10;;;;;;5033015;28;20541;-65
2023/06/08 10:18:55;;;;;;;28.27;26.60;;;25.90;75.90;;;;;;5032928;28;20449;-64
2023/06/08 10:21:22;;;;;;;27.30;26.00;;;25.90;75.90;;;;;;5032811;28;20496;-65
2023/06/08 10:23:51;;;;;;;27.10;25.80;;;25.90;76.30;;;;;;5032568;28;20523;-63
2023/06/08 10:26:19;;;;;;;28.13;26.43;;;25.90;76.40;;;;;;5032872;28;20465;-65
2023/06/08 10:29:06;;;;;;;26.57;25.17;;;26.00;76.50;;;;;;5032587;28;20485;-65
2023/06/08 10:31:34;;;;;;;28.67;27.17;;;25.90;76.50;;;;;;5032760;28;20445;-63
2023/06/08 10:34:07;;;;;;;27.50;26.17;;;26.00;76.50;;;;;;5032038;28;20492;-64
2023/06/08 10:36:39;;;;;;;27.63;26.23;;;26.00;76.40;;;;;;5032663;28;20441;-62
2023/06/08 10:39:10;;;;;;;28.60;27.10;;;26.00;76.40;;;;;;5032617;28;20440;-62
2023/06/08 10:41:45;;;;;;;27.77;26.47;;;26.00;76.40;;;;;;5032499;28;20441;-60
2023/06/08 10:44:29;;;;;;;27.47;25.97;;;26.10;76.30;;;;;;5031965;28;20894;-63
2023/06/08 10:47:00;;;;;;;27.23;25.83;;;26.10;76.10;;;;;;5032198;28;20448;-65
2023/06/08 10:49:31;;;;;;;26.80;25.50;;;26.10;75.90;;;;;;5032328;28;20488;-64
2023/06/08 10:51:59;;;;;;;28.60;27.20;;;26.10;76.00;;;;;;5032333;28;20893;-62
2023/06/08 10:54:28;;;;;;;27.60;26.30;;;26.00;76.00;;;;;;5031684;28;20571;-61
2023/06/08 10:56:56;;;;;;;27.30;25.93;;;26.00;76.40;;;;;;5032258;28;20449;-64
2023/06/08 10:59:32;;;;;;;28.30;26.90;;;26.00;76.40;;;;;;5032249;28;20484;-62
2023/06/08 11:02:02;;;;;;;27.83;26.33;;;26.00;76.40;;;;;;5032141;28;20445;-57
2023/06/08 11:04:30;;;;;;;28.20;26.70;;;26.00;76.50;;;;;;5031505;28;20484;-63
2023/06/08 11:07:01;;;;;;;28.87;27.37;;;26.10;76.60;;;;;;5032087;28;20445;-63
2023/06/08 11:09:31;;;;;;;28.47;26.80;;;26.00;76.80;;;;;;5031997;28;20496;-60
2023/06/08 11:11:58;;;;;;;29.37;27.77;;;26.00;76.90;;;;;;5031985;28;20547;-55
2023/06/08 11:14:25;;;;;;;28.10;26.70;;;26.00;77.00;;;;;;5031622;28;20544;-59
2023/06/08 11:16:53;;;;;;;29.57;28.07;;;26.10;77.10;;;;;;5031575;28;20484;-64
2023/06/08 11:19:20;;;;;;;28.73;27.33;;;26.00;77.10;;;;;;5031940;28;20480;-66
2023/06/08 11:21:51;;;;;;;29.27;27.57;;;25.90;77.90;;;;;;5031787;28;20485;-66
2023/06/08 11:24:18;;;;;;;29.53;27.50;;;25.90;78.20;;;;;;5031563;28;20480;-65
2023/06/08 11:26:46;;;;;;;28.07;26.57;;;25.90;78.70;;;;;;5031425;28;20533;-61
2023/06/08 11:29:14;;;;;;;29.30;27.80;;;25.80;79.30;;;;;;5031581;28;20480;-63
2023/06/08 11:31:41;;;;;;;29.03;27.40;;;25.80;79.60;;;;;;5031619;28;20445;-58
2023/06/08 11:34:11;;;;;;;28.27;26.77;;;25.80;79.20;;;;;;5031526;28;20469;-64
2023/06/08 11:36:39;;;;;;;29.43;27.77;;;25.70;79.00;;;;;;5031543;28;20975;-61
2023/06/08 11:39:07;;;;;;;31.37;29.47;;;25.70;79.00;;;;;;5031436;28;20445;-64
2023/06/08 11:41:34;;;;;;;29.60;28.10;;;25.70;79.30;;;;;;5031334;28;20487;-64
2023/06/08 11:44:02;;;;;;;30.07;28.53;;;25.70;79.50;;;;;;5031111;28;21002;-62
2023/06/08 11:46:30;;;;;;;29.83;28.10;;;25.70;81.50;;;;;;5031182;28;20539;-58
2023/06/08 11:49:10;;;;;;;30.70;29.07;;;25.70;83.70;;;;;;5031358;28;20480;-57
2023/06/08 11:51:47;;;;;;;29.60;27.80;;;25.70;85.70;;;;;;5031455;28;20447;-68
2023/06/08 11:54:15;;;;;;;30.00;28.40;;;25.70;85.60;;;;;;5030879;28;20479;-65
2023/06/08 11:56:45;;;;;;;28.43;27.03;;;25.80;83.50;;;;;;5031766;28;20802;-66
2023/06/08 11:59:14;;;;;;;29.43;27.93;;;25.90;82.90;;;;;;5032973;28;20507;-68
2023/06/08 12:01:57;;;;;;;31.10;29.40;;;25.90;82.40;;;;;;5036830;28;20448;-66
2023/06/08 12:04:31;;;;;;;31.13;29.43;;;25.90;81.60;;;;;;5035367;28;20501;-66
2023/06/08 12:06:58;;;;;;;31.33;29.37;;;26.00;80.50;;;;;;5033441;28;20453;-65
2023/06/08 12:09:25;;;;;;;30.33;28.80;;;26.10;80.50;;;;;;5032790;28;20531;-64
2023/06/08 12:11:53;;;;;;;30.17;28.35;;;26.10;80.10;;;;;;5032133;28;20516;-62
2023/06/08 12:14:21;;;;;;;32.80;30.70;;;26.20;81.80;;;;;;5033047;28;20228;-65
2023/06/08 12:16:48;;;;;;;31.67;29.97;;;26.30;80.20;;;;;;5032909;28;20485;-65
2023/06/08 12:19:15;;;;;;;32.23;30.53;;;26.20;78.70;;;;;;5033579;28;20477;-66
2023/06/08 12:21:42;;;;;;;31.80;30.20;;;26.20;79.00;;;;;;5033210;28;20472;-66
2023/06/08 12:24:10;;;;;;;31.90;30.20;;;26.30;77.60;;;;;;5032719;28;20505;-65
2023/06/08 12:26:37;;;;;;;32.13;30.47;;;26.30;76.30;;;;;;5033008;28;20521;-64
2023/06/08 12:29:05;;;;;;;32.40;30.50;;;26.30;77.50;;;;;;5032798;28;20542;-63
2023/06/08 12:31:34;;;;;;;29.83;28.30;;;26.20;76.90;;;;;;5033456;28;20543;-63
2023/06/08 12:34:02;;;;;;;29.97;28.47;;;26.20;76.50;;;;;;5033035;28;20887;-63
2023/06/08 12:36:29;;;;;;;31.20;29.60;;;26.20;76.10;;;;;;5032586;28;20875;-63